createdAt,value
2023-02-14T00:01:58.708Z,92.60
2023-02-14T00:07:03.148Z,91.52
2023-02-14T00:12:07.515Z,92.17
2023-02-14T00:22:45.827Z,92.78
2023-02-14T00:27:48.709Z,93.58
2023-02-14T00:32:51.638Z,93.29
2023-02-14T00:37:56.003Z,93.15
2023-02-14T00:42:58.948Z,92.46
2023-02-14T00:48:01.858Z,92.21
2023-02-14T00:53:06.156Z,92.34
2023-02-14T00:58:09.104Z,92.55
2023-02-14T01:03:12.010Z,93.36
2023-02-14T01:08:16.275Z,92.48
2023-02-14T01:13:20.126Z,91.63
2023-02-14T01:18:23.035Z,92.04
2023-02-14T01:23:27.264Z,92.20
2023-02-14T01:28:31.214Z,91.57
2023-02-14T01:33:34.152Z,91.81
2023-02-14T01:38:38.461Z,91.74
2023-02-14T01:43:57.105Z,92.65
2023-02-14T01:49:04.505Z,91.37
2023-02-14T01:54:10.623Z,91.72
2023-02-14T01:59:17.546Z,90.87
2023-02-14T02:04:24.677Z,91.44
2023-02-14T02:09:34.701Z,90.31
2023-02-14T02:14:37.887Z,90.68
2023-02-14T02:20:07.418Z,91.30
2023-02-14T02:25:26.583Z,91.31
2023-02-14T02:31:08.962Z,90.30
2023-02-14T02:36:33.309Z,90.27
2023-02-14T02:41:48.888Z,89.49
2023-02-14T02:46:59.969Z,89.95
2023-02-14T02:52:27.227Z,89.17
2023-02-14T02:57:36.979Z,89.41
2023-02-14T03:02:56.829Z,88.81
2023-02-14T03:08:01.264Z,88.30
2023-02-14T03:13:19.189Z,89.48
2023-02-14T03:18:43.728Z,88.97
2023-02-14T03:23:58.574Z,89.47
2023-02-14T03:29:09.131Z,89.92
2023-02-14T03:34:16.198Z,89.50
2023-02-14T03:39:25.457Z,89.39
2023-02-14T03:44:32.080Z,89.37
2023-02-14T03:49:41.352Z,89.42
2023-02-14T03:54:49.775Z,89.78
2023-02-14T03:59:54.588Z,89.96
2023-02-14T04:05:01.000Z,89.71
2023-02-14T04:10:05.621Z,90.04
2023-02-14T04:15:09.383Z,90.34
2023-02-14T04:20:12.649Z,89.86
2023-02-14T04:25:17.180Z,89.52
2023-02-14T04:30:20.981Z,89.37
2023-02-14T04:35:24.086Z,88.87
2023-02-14T04:40:28.369Z,89.60
2023-02-14T04:45:31.368Z,90.00
2023-02-14T04:50:34.332Z,89.78
2023-02-14T04:55:38.607Z,89.00
2023-02-14T05:00:41.625Z,89.09
2023-02-14T05:05:44.652Z,90.57
2023-02-14T05:10:49.383Z,90.40
2023-02-14T05:15:52.270Z,90.03
2023-02-14T05:20:55.990Z,89.91
2023-02-14T05:26:00.341Z,90.12
2023-02-14T05:31:03.753Z,90.21
2023-02-14T05:36:07.601Z,90.07
2023-02-14T05:41:11.925Z,89.81
2023-02-14T05:46:14.955Z,89.09
2023-02-14T05:51:17.833Z,89.25
2023-02-14T05:56:22.104Z,89.94
2023-02-14T06:01:25.012Z,89.61
2023-02-14T06:06:27.882Z,88.75
2023-02-14T06:11:32.139Z,89.50
2023-02-14T06:16:35.179Z,88.43
2023-02-14T06:21:38.269Z,88.75
2023-02-14T06:26:42.712Z,88.50
2023-02-14T06:31:45.733Z,87.98
2023-02-14T06:36:48.677Z,88.40
2023-02-14T06:41:53.157Z,88.94
2023-02-14T06:46:56.052Z,87.38
2023-02-14T06:51:58.985Z,87.26
2023-02-14T06:57:03.497Z,86.47
2023-02-14T07:02:06.438Z,85.75
2023-02-14T07:07:09.374Z,87.43
2023-02-14T07:12:13.649Z,87.23
2023-02-14T07:17:16.549Z,87.17
2023-02-14T07:22:19.468Z,86.17
2023-02-14T07:27:23.739Z,86.46
2023-02-14T07:32:26.870Z,85.95
2023-02-14T07:37:29.867Z,87.26
2023-02-14T07:42:34.251Z,86.08
2023-02-14T07:47:37.248Z,85.21
2023-02-14T07:52:40.125Z,85.72
2023-02-14T07:57:44.457Z,85.23
2023-02-14T08:02:47.421Z,85.52
2023-02-14T08:07:50.512Z,85.51
2023-02-14T08:13:00.463Z,86.20
2023-02-14T08:18:03.377Z,86.26
2023-02-14T08:23:06.273Z,86.10
2023-02-14T08:28:11.116Z,85.84
2023-02-14T08:33:14.123Z,85.84
2023-02-14T08:38:17.066Z,85.92
2023-02-14T08:43:21.517Z,85.65
2023-02-14T08:48:26.732Z,84.59
2023-02-14T08:53:29.621Z,86.31
2023-02-14T08:58:35.822Z,85.87
2023-02-14T09:03:39.092Z,87.47
2023-02-14T09:08:42.038Z,85.96
2023-02-14T09:13:47.020Z,85.29
2023-02-14T09:18:50.577Z,86.37
2023-02-14T09:23:53.858Z,88.46
2023-02-14T09:28:58.921Z,85.99
2023-02-14T09:34:01.805Z,85.98
2023-02-14T09:39:05.171Z,86.31
2023-02-14T09:44:15.600Z,85.31
2023-02-14T09:49:32.065Z,85.16
2023-02-14T09:54:37.057Z,84.00
2023-02-14T09:59:48.503Z,84.32
2023-02-14T10:05:02.747Z,83.80
2023-02-14T10:10:13.960Z,84.00
2023-02-14T10:15:21.886Z,83.54
2023-02-14T10:20:29.142Z,83.59
2023-02-14T10:25:40.153Z,84.50
2023-02-14T10:30:51.489Z,84.25
2023-02-14T10:50:09.434Z,82.82
2023-02-14T10:55:31.609Z,81.38
2023-02-14T11:00:39.264Z,83.11
2023-02-14T11:06:13.358Z,81.39
2023-02-14T11:18:32.686Z,79.99
2023-02-14T11:23:40.506Z,79.83
2023-02-14T11:28:57.379Z,81.68
2023-02-14T11:34:03.676Z,79.44
2023-02-14T11:39:22.462Z,79.24
2023-02-14T11:44:27.880Z,79.16
2023-02-14T11:49:33.872Z,79.39
2023-02-14T11:54:40.349Z,79.36
2023-02-14T11:59:45.180Z,78.51
2023-02-14T12:04:51.031Z,78.75
2023-02-14T12:10:22.468Z,78.38
2023-02-14T12:15:30.175Z,77.89
2023-02-14T12:27:41.732Z,78.16
2023-02-14T12:32:49.479Z,79.05
2023-02-14T12:38:05.183Z,78.54
2023-02-14T12:43:43.601Z,77.63
2023-02-14T12:49:05.077Z,78.55
2023-02-14T12:54:29.264Z,77.18
2023-02-14T12:59:43.618Z,77.51
2023-02-14T13:04:55.792Z,77.91
2023-02-14T13:10:04.862Z,76.83
2023-02-14T13:15:23.550Z,76.81
2023-02-14T13:20:55.289Z,76.60
2023-02-14T13:26:02.013Z,78.65
2023-02-14T13:31:06.756Z,77.65
2023-02-14T13:36:13.016Z,80.32
2023-02-14T13:41:17.672Z,80.68
2023-02-14T13:46:50.059Z,79.62
2023-02-14T13:57:36.449Z,80.20
2023-02-14T14:02:45.598Z,79.06
2023-02-14T14:07:48.518Z,79.00
2023-02-14T14:12:53.664Z,78.17
2023-02-14T14:18:42.913Z,78.82
2023-02-14T14:23:45.885Z,79.99
2023-02-14T14:28:48.927Z,80.61
2023-02-14T14:34:01.230Z,80.68
2023-02-14T14:39:04.211Z,82.17
2023-02-14T14:44:07.996Z,81.36
2023-02-14T14:49:13.791Z,80.35
2023-02-14T14:54:21.362Z,80.31
2023-02-14T14:59:31.034Z,81.73
2023-02-14T15:04:36.564Z,81.60
2023-02-14T15:09:42.329Z,81.32
2023-02-14T15:14:54.362Z,80.75
2023-02-14T15:20:02.214Z,81.52
2023-02-14T15:25:10.738Z,81.73
2023-02-14T15:30:26.098Z,81.95
2023-02-14T15:35:33.161Z,81.32
2023-02-14T15:40:38.798Z,82.01
2023-02-14T15:45:43.142Z,82.67
2023-02-14T15:50:49.808Z,83.13
2023-02-14T15:55:52.906Z,83.40
2023-02-14T16:00:56.702Z,82.97
2023-02-14T16:06:01.189Z,83.20
2023-02-14T16:11:08.893Z,83.91
2023-02-14T16:16:13.400Z,83.45
2023-02-14T16:21:21.375Z,84.46
2023-02-14T16:26:24.286Z,84.44
2023-02-14T16:31:28.437Z,84.71
2023-02-14T16:36:34.985Z,85.00
2023-02-14T16:41:37.960Z,84.16
2023-02-14T16:46:43.073Z,84.77
2023-02-14T16:51:48.654Z,85.00
2023-02-14T16:56:55.616Z,85.31
2023-02-14T17:01:59.313Z,85.53
2023-02-14T17:07:05.993Z,85.55
2023-02-14T17:12:16.127Z,85.04
2023-02-14T17:17:19.238Z,85.41
2023-02-14T17:22:23.623Z,85.76
2023-02-14T17:27:26.563Z,85.67
2023-02-14T17:32:29.472Z,85.64
2023-02-14T17:37:34.355Z,86.24
2023-02-14T17:42:38.688Z,86.51
2023-02-14T17:47:43.287Z,85.86
2023-02-14T17:52:47.637Z,86.29
2023-02-14T17:57:52.507Z,87.03
2023-02-14T18:02:55.490Z,86.29
2023-02-14T18:07:59.787Z,87.71
2023-02-14T18:13:03.347Z,87.08
2023-02-14T18:18:06.306Z,87.16
2023-02-14T18:23:11.225Z,86.81
2023-02-14T18:28:14.109Z,87.51
2023-02-14T18:33:17.869Z,87.82
2023-02-14T18:38:22.203Z,88.14
2023-02-14T18:43:25.140Z,87.04
2023-02-14T18:48:28.131Z,88.34
2023-02-14T18:53:32.505Z,86.79
2023-02-14T18:58:36.167Z,86.35
2023-02-14T19:03:40.521Z,87.25
2023-02-14T19:08:45.153Z,85.75
2023-02-14T19:13:49.929Z,85.80
2023-02-14T19:18:54.112Z,87.45
2023-02-14T19:23:58.995Z,87.21
2023-02-14T19:29:03.788Z,87.94
2023-02-14T19:34:08.789Z,87.68
2023-02-14T19:39:14.232Z,87.61
2023-02-14T19:44:18.505Z,87.12
2023-02-14T19:49:22.143Z,87.55
2023-02-14T19:54:26.619Z,88.37
2023-02-14T19:59:32.463Z,87.42
2023-02-14T20:04:35.330Z,87.30
2023-02-14T20:09:39.642Z,88.34
2023-02-14T20:14:50.912Z,88.85
2023-02-14T20:19:55.876Z,88.27
2023-02-14T20:25:00.618Z,88.28
2023-02-14T20:30:03.850Z,88.23
2023-02-14T20:35:07.526Z,88.33
2023-02-14T20:40:13.294Z,88.12
2023-02-14T20:45:16.183Z,87.93
2023-02-14T20:50:19.206Z,87.90
2023-02-14T20:55:23.540Z,88.18
2023-02-14T21:00:27.908Z,88.29
2023-02-14T21:05:30.858Z,88.69
2023-02-14T21:10:35.233Z,88.66
2023-02-14T21:15:38.170Z,88.32
2023-02-14T21:20:41.218Z,88.38
2023-02-14T21:25:45.480Z,88.33
2023-02-14T21:30:48.505Z,87.85
2023-02-14T21:35:51.573Z,89.19
2023-02-14T21:41:04.843Z,88.91
2023-02-14T21:46:09.440Z,88.42
2023-02-14T21:51:12.388Z,88.96
2023-02-14T21:56:19.771Z,89.64
2023-02-14T22:01:24.996Z,88.91
2023-02-14T22:06:28.607Z,89.02
2023-02-14T22:11:32.942Z,89.31
2023-02-14T22:16:36.853Z,88.58
2023-02-14T22:21:39.855Z,89.05
2023-02-14T22:26:44.107Z,88.81
2023-02-14T22:31:47.243Z,88.71
2023-02-14T22:36:51.226Z,88.78
2023-02-14T22:41:56.297Z,89.05
2023-02-14T22:46:59.271Z,88.43
2023-02-14T22:52:02.156Z,88.04
2023-02-14T22:57:06.477Z,88.50
2023-02-14T23:02:09.798Z,89.56
2023-02-14T23:07:12.690Z,88.76
2023-02-14T23:12:30.865Z,89.24
2023-02-14T23:17:51.079Z,88.89
2023-02-14T23:22:53.956Z,88.70
2023-02-14T23:27:58.257Z,89.02
2023-02-14T23:33:01.147Z,89.92
2023-02-14T23:38:04.012Z,88.95
2023-02-14T23:43:08.274Z,88.93
2023-02-14T23:48:11.677Z,89.47
2023-02-14T23:53:15.361Z,90.84
2023-02-14T23:58:19.606Z,89.71
